sensor_id;sensor_type;location;lat;lon;timestamp;P1;durP1;ratioP1;P2;durP2;ratioP2
57231;SDS011;43488;46.934;8.276;2023-07-31T00:00:45;622.22;;;273.13;;
57231;SDS011;43488;46.934;8.276;2023-07-31T00:03:17;644.10;;;273.65;;
57231;SDS011;43488;46.934;8.276;2023-07-31T00:05:44;607.53;;;240.80;;
57231;SDS011;43488;46.934;8.276;2023-07-31T00:08:11;643.08;;;280.45;;
57231;SDS011;43488;46.934;8.276;2023-07-31T00:10:39;659.00;;;282.13;;
57231;SDS011;43488;46.934;8.276;2023-07-31T00:13:07;753.50;;;307.05;;
57231;SDS011;43488;46.934;8.276;2023-07-31T00:15:34;762.92;;;307.23;;
57231;SDS011;43488;46.934;8.276;2023-07-31T00:18:02;756.97;;;298.95;;
57231;SDS011;43488;46.934;8.276;2023-07-31T00:20:29;770.75;;;320.30;;
57231;SDS011;43488;46.934;8.276;2023-07-31T00:22:57;755.55;;;297.20;;
57231;SDS011;43488;46.934;8.276;2023-07-31T00:25:24;759.88;;;307.77;;
57231;SDS011;43488;46.934;8.276;2023-07-31T00:27:51;740.75;;;282.58;;
57231;SDS011;43488;46.934;8.276;2023-07-31T00:30:19;758.70;;;307.38;;
57231;SDS011;43488;46.934;8.276;2023-07-31T00:32:46;742.95;;;283.48;;
57231;SDS011;43488;46.934;8.276;2023-07-31T00:35:16;765.67;;;315.67;;
57231;SDS011;43488;46.934;8.276;2023-07-31T00:37:46;765.40;;;318.02;;
57231;SDS011;43488;46.934;8.276;2023-07-31T00:40:13;758.47;;;305.45;;
57231;SDS011;43488;46.934;8.276;2023-07-31T00:42:40;758.00;;;309.40;;
57231;SDS011;43488;46.934;8.276;2023-07-31T00:45:11;763.53;;;310.55;;
57231;SDS011;43488;46.934;8.276;2023-07-31T00:47:38;757.15;;;289.63;;
57231;SDS011;43488;46.934;8.276;2023-07-31T00:50:08;758.45;;;299.50;;
57231;SDS011;43488;46.934;8.276;2023-07-31T00:52:36;797.92;;;297.15;;
57231;SDS011;43488;46.934;8.276;2023-07-31T00:55:03;791.63;;;295.90;;
57231;SDS011;43488;46.934;8.276;2023-07-31T00:57:32;788.17;;;289.75;;
57231;SDS011;43488;46.934;8.276;2023-07-31T00:59:59;791.13;;;299.58;;
57231;SDS011;43488;46.934;8.276;2023-07-31T01:02:27;796.85;;;305.23;;
57231;SDS011;43488;46.934;8.276;2023-07-31T01:04:55;795.72;;;310.20;;
57231;SDS011;43488;46.934;8.276;2023-07-31T01:07:27;787.10;;;300.40;;
57231;SDS011;43488;46.934;8.276;2023-07-31T01:10:23;778.20;;;299.20;;
57231;SDS011;43488;46.934;8.276;2023-07-31T01:12:56;780.58;;;291.10;;
57231;SDS011;43488;46.934;8.276;2023-07-31T01:15:24;784.72;;;313.27;;
57231;SDS011;43488;46.934;8.276;2023-07-31T01:17:51;761.72;;;295.30;;
57231;SDS011;43488;46.934;8.276;2023-07-31T01:20:23;795.00;;;307.15;;
57231;SDS011;43488;46.934;8.276;2023-07-31T01:28:55;772.42;;;256.80;;
57231;SDS011;43488;46.934;8.276;2023-07-31T01:31:28;765.53;;;260.45;;
57231;SDS011;43488;46.934;8.276;2023-07-31T01:33:57;778.78;;;267.42;;
57231;SDS011;43488;46.934;8.276;2023-07-31T01:36:27;776.63;;;261.80;;
57231;SDS011;43488;46.934;8.276;2023-07-31T01:39:00;795.00;;;280.65;;
57231;SDS011;43488;46.934;8.276;2023-07-31T01:41:28;795.40;;;290.92;;
57231;SDS011;43488;46.934;8.276;2023-07-31T01:43:55;794.08;;;284.85;;
57231;SDS011;43488;46.934;8.276;2023-07-31T01:46:22;767.20;;;256.27;;
57231;SDS011;43488;46.934;8.276;2023-07-31T01:48:50;792.42;;;282.67;;
57231;SDS011;43488;46.934;8.276;2023-07-31T01:51:17;806.75;;;301.40;;
57231;SDS011;43488;46.934;8.276;2023-07-31T01:53:44;790.65;;;279.77;;
57231;SDS011;43488;46.934;8.276;2023-07-31T01:56:12;805.40;;;303.38;;
57231;SDS011;43488;46.934;8.276;2023-07-31T01:58:39;798.15;;;297.33;;
57231;SDS011;43488;46.934;8.276;2023-07-31T02:01:07;782.13;;;276.58;;
57231;SDS011;43488;46.934;8.276;2023-07-31T02:03:34;773.40;;;263.55;;
57231;SDS011;43488;46.934;8.276;2023-07-31T02:06:02;798.63;;;294.83;;
57231;SDS011;43488;46.934;8.276;2023-07-31T02:08:30;792.45;;;290.10;;
57231;SDS011;43488;46.934;8.276;2023-07-31T02:10:58;806.55;;;310.25;;
57231;SDS011;43488;46.934;8.276;2023-07-31T02:13:25;801.40;;;299.45;;
57231;SDS011;43488;46.934;8.276;2023-07-31T02:15:52;791.10;;;290.63;;
57231;SDS011;43488;46.934;8.276;2023-07-31T02:18:20;789.55;;;290.52;;
57231;SDS011;43488;46.934;8.276;2023-07-31T02:20:52;777.05;;;281.75;;
57231;SDS011;43488;46.934;8.276;2023-07-31T02:23:20;796.73;;;303.73;;
57231;SDS011;43488;46.934;8.276;2023-07-31T02:25:48;797.28;;;310.95;;
57231;SDS011;43488;46.934;8.276;2023-07-31T02:28:16;767.45;;;273.13;;
57231;SDS011;43488;46.934;8.276;2023-07-31T02:30:44;785.47;;;324.27;;
57231;SDS011;43488;46.934;8.276;2023-07-31T02:33:15;767.05;;;299.20;;
57231;SDS011;43488;46.934;8.276;2023-07-31T02:35:42;756.63;;;289.30;;
57231;SDS011;43488;46.934;8.276;2023-07-31T02:38:10;774.97;;;314.20;;
57231;SDS011;43488;46.934;8.276;2023-07-31T02:40:38;738.78;;;306.35;;
57231;SDS011;43488;46.934;8.276;2023-07-31T02:43:08;713.05;;;309.45;;
57231;SDS011;43488;46.934;8.276;2023-07-31T02:45:35;744.13;;;292.90;;
57231;SDS011;43488;46.934;8.276;2023-07-31T02:48:02;754.00;;;307.27;;
57231;SDS011;43488;46.934;8.276;2023-07-31T02:50:30;765.17;;;320.92;;
57231;SDS011;43488;46.934;8.276;2023-07-31T02:52:59;761.60;;;301.15;;
57231;SDS011;43488;46.934;8.276;2023-07-31T02:55:26;768.03;;;306.42;;
57231;SDS011;43488;46.934;8.276;2023-07-31T02:57:54;763.40;;;292.52;;
57231;SDS011;43488;46.934;8.276;2023-07-31T03:00:21;759.90;;;288.60;;
57231;SDS011;43488;46.934;8.276;2023-07-31T03:02:49;780.10;;;304.90;;
57231;SDS011;43488;46.934;8.276;2023-07-31T03:05:16;783.90;;;305.42;;
57231;SDS011;43488;46.934;8.276;2023-07-31T03:07:44;767.90;;;303.20;;
57231;SDS011;43488;46.934;8.276;2023-07-31T03:10:11;796.17;;;310.63;;
57231;SDS011;43488;46.934;8.276;2023-07-31T03:12:39;790.25;;;299.95;;
57231;SDS011;43488;46.934;8.276;2023-07-31T03:15:07;730.85;;;280.92;;
57231;SDS011;43488;46.934;8.276;2023-07-31T03:17:35;744.42;;;311.73;;
57231;SDS011;43488;46.934;8.276;2023-07-31T03:20:03;727.78;;;300.95;;
57231;SDS011;43488;46.934;8.276;2023-07-31T03:22:31;723.35;;;289.92;;
57231;SDS011;43488;46.934;8.276;2023-07-31T03:24:58;738.65;;;310.10;;
57231;SDS011;43488;46.934;8.276;2023-07-31T03:27:25;717.80;;;299.65;;
57231;SDS011;43488;46.934;8.276;2023-07-31T03:29:53;729.30;;;308.73;;
57231;SDS011;43488;46.934;8.276;2023-07-31T03:32:20;732.53;;;288.20;;
57231;SDS011;43488;46.934;8.276;2023-07-31T03:34:48;733.28;;;292.73;;
57231;SDS011;43488;46.934;8.276;2023-07-31T03:37:16;731.25;;;294.60;;
57231;SDS011;43488;46.934;8.276;2023-07-31T03:39:43;713.97;;;289.95;;
57231;SDS011;43488;46.934;8.276;2023-07-31T03:42:11;714.20;;;309.38;;
57231;SDS011;43488;46.934;8.276;2023-07-31T03:44:38;719.15;;;297.05;;
57231;SDS011;43488;46.934;8.276;2023-07-31T03:47:05;744.08;;;306.45;;
57231;SDS011;43488;46.934;8.276;2023-07-31T03:49:33;734.22;;;293.60;;
57231;SDS011;43488;46.934;8.276;2023-07-31T03:52:00;736.50;;;293.55;;
57231;SDS011;43488;46.934;8.276;2023-07-31T03:54:28;740.38;;;292.55;;
57231;SDS011;43488;46.934;8.276;2023-07-31T03:56:55;755.85;;;298.33;;
57231;SDS011;43488;46.934;8.276;2023-07-31T03:59:22;758.85;;;294.05;;
57231;SDS011;43488;46.934;8.276;2023-07-31T04:01:50;768.60;;;300.70;;
57231;SDS011;43488;46.934;8.276;2023-07-31T04:04:17;770.70;;;298.90;;
57231;SDS011;43488;46.934;8.276;2023-07-31T04:06:44;767.38;;;305.13;;
57231;SDS011;43488;46.934;8.276;2023-07-31T04:09:11;764.40;;;302.27;;
57231;SDS011;43488;46.934;8.276;2023-07-31T04:11:39;772.60;;;300.17;;
57231;SDS011;43488;46.934;8.276;2023-07-31T04:14:07;761.25;;;292.67;;
57231;SDS011;43488;46.934;8.276;2023-07-31T04:16:34;779.95;;;306.92;;
57231;SDS011;43488;46.934;8.276;2023-07-31T04:19:03;763.63;;;292.95;;
57231;SDS011;43488;46.934;8.276;2023-07-31T04:21:30;778.10;;;299.73;;
57231;SDS011;43488;46.934;8.276;2023-07-31T04:23:58;785.00;;;315.02;;
57231;SDS011;43488;46.934;8.276;2023-07-31T04:26:26;776.72;;;299.52;;
57231;SDS011;43488;46.934;8.276;2023-07-31T04:28:54;775.67;;;300.55;;
57231;SDS011;43488;46.934;8.276;2023-07-31T04:31:22;767.95;;;285.20;;
57231;SDS011;43488;46.934;8.276;2023-07-31T04:33:49;771.35;;;287.80;;
57231;SDS011;43488;46.934;8.276;2023-07-31T04:36:17;789.47;;;313.67;;
57231;SDS011;43488;46.934;8.276;2023-07-31T04:38:44;788.13;;;311.02;;
57231;SDS011;43488;46.934;8.276;2023-07-31T04:41:12;781.10;;;292.25;;
57231;SDS011;43488;46.934;8.276;2023-07-31T04:43:39;785.30;;;297.35;;
57231;SDS011;43488;46.934;8.276;2023-07-31T04:46:07;775.40;;;288.95;;
57231;SDS011;43488;46.934;8.276;2023-07-31T04:48:35;786.92;;;297.67;;
57231;SDS011;43488;46.934;8.276;2023-07-31T04:51:02;794.38;;;301.77;;
57231;SDS011;43488;46.934;8.276;2023-07-31T04:53:29;793.60;;;302.80;;
57231;SDS011;43488;46.934;8.276;2023-07-31T04:55:56;793.75;;;299.70;;
57231;SDS011;43488;46.934;8.276;2023-07-31T04:58:24;792.55;;;303.70;;
57231;SDS011;43488;46.934;8.276;2023-07-31T05:00:51;785.47;;;287.80;;
57231;SDS011;43488;46.934;8.276;2023-07-31T05:03:19;782.95;;;291.45;;
57231;SDS011;43488;46.934;8.276;2023-07-31T05:05:46;783.95;;;294.60;;
57231;SDS011;43488;46.934;8.276;2023-07-31T05:08:13;791.80;;;306.23;;
57231;SDS011;43488;46.934;8.276;2023-07-31T05:10:41;775.33;;;289.10;;
57231;SDS011;43488;46.934;8.276;2023-07-31T05:13:09;771.33;;;294.90;;
57231;SDS011;43488;46.934;8.276;2023-07-31T05:15:36;778.60;;;294.88;;
57231;SDS011;43488;46.934;8.276;2023-07-31T05:18:04;751.42;;;251.65;;
57231;SDS011;43488;46.934;8.276;2023-07-31T05:20:31;786.38;;;290.13;;
57231;SDS011;43488;46.934;8.276;2023-07-31T05:22:59;799.67;;;314.13;;
57231;SDS011;43488;46.934;8.276;2023-07-31T05:25:27;793.00;;;301.08;;
57231;SDS011;43488;46.934;8.276;2023-07-31T05:27:54;792.72;;;300.60;;
57231;SDS011;43488;46.934;8.276;2023-07-31T05:30:21;798.55;;;312.77;;
57231;SDS011;43488;46.934;8.276;2023-07-31T05:32:49;770.15;;;287.23;;
57231;SDS011;43488;46.934;8.276;2023-07-31T05:35:17;792.63;;;301.60;;
57231;SDS011;43488;46.934;8.276;2023-07-31T05:37:44;768.97;;;284.30;;
57231;SDS011;43488;46.934;8.276;2023-07-31T05:40:11;789.90;;;282.27;;
57231;SDS011;43488;46.934;8.276;2023-07-31T05:42:39;785.47;;;277.60;;
57231;SDS011;43488;46.934;8.276;2023-07-31T05:45:07;799.85;;;299.85;;
57231;SDS011;43488;46.934;8.276;2023-07-31T05:47:34;806.97;;;309.02;;
57231;SDS011;43488;46.934;8.276;2023-07-31T05:50:02;771.65;;;259.20;;
57231;SDS011;43488;46.934;8.276;2023-07-31T05:52:29;790.25;;;285.13;;
57231;SDS011;43488;46.934;8.276;2023-07-31T05:54:57;806.53;;;304.17;;
57231;SDS011;43488;46.934;8.276;2023-07-31T05:57:24;785.03;;;281.05;;
57231;SDS011;43488;46.934;8.276;2023-07-31T05:59:52;800.83;;;292.63;;
57231;SDS011;43488;46.934;8.276;2023-07-31T06:02:20;776.22;;;304.98;;
57231;SDS011;43488;46.934;8.276;2023-07-31T06:04:47;763.50;;;284.80;;
57231;SDS011;43488;46.934;8.276;2023-07-31T06:07:15;772.72;;;287.23;;
57231;SDS011;43488;46.934;8.276;2023-07-31T06:09:42;791.53;;;301.73;;
57231;SDS011;43488;46.934;8.276;2023-07-31T06:12:10;780.20;;;296.63;;
57231;SDS011;43488;46.934;8.276;2023-07-31T06:14:38;786.60;;;295.90;;
57231;SDS011;43488;46.934;8.276;2023-07-31T06:17:05;781.15;;;297.88;;
57231;SDS011;43488;46.934;8.276;2023-07-31T06:19:32;780.78;;;292.13;;
57231;SDS011;43488;46.934;8.276;2023-07-31T06:22:00;780.47;;;306.92;;
57231;SDS011;43488;46.934;8.276;2023-07-31T06:24:28;773.55;;;294.42;;
57231;SDS011;43488;46.934;8.276;2023-07-31T06:26:56;782.17;;;313.17;;
57231;SDS011;43488;46.934;8.276;2023-07-31T06:29:24;773.60;;;301.92;;
57231;SDS011;43488;46.934;8.276;2023-07-31T06:31:51;781.03;;;312.02;;
57231;SDS011;43488;46.934;8.276;2023-07-31T06:34:18;778.13;;;307.95;;
57231;SDS011;43488;46.934;8.276;2023-07-31T06:36:45;772.83;;;294.58;;
57231;SDS011;43488;46.934;8.276;2023-07-31T06:39:13;785.45;;;312.92;;
57231;SDS011;43488;46.934;8.276;2023-07-31T06:41:43;770.92;;;299.58;;
57231;SDS011;43488;46.934;8.276;2023-07-31T06:44:11;767.90;;;286.77;;
57231;SDS011;43488;46.934;8.276;2023-07-31T06:46:39;783.20;;;304.85;;
57231;SDS011;43488;46.934;8.276;2023-07-31T06:49:06;778.88;;;296.08;;
57231;SDS011;43488;46.934;8.276;2023-07-31T06:51:33;781.78;;;307.10;;
57231;SDS011;43488;46.934;8.276;2023-07-31T06:54:02;788.85;;;315.52;;
57231;SDS011;43488;46.934;8.276;2023-07-31T06:56:29;785.05;;;314.45;;
57231;SDS011;43488;46.934;8.276;2023-07-31T06:58:56;781.75;;;304.20;;
57231;SDS011;43488;46.934;8.276;2023-07-31T07:01:24;776.97;;;300.05;;
57231;SDS011;43488;46.934;8.276;2023-07-31T07:03:51;775.10;;;299.08;;
57231;SDS011;43488;46.934;8.276;2023-07-31T07:06:18;789.50;;;313.45;;
57231;SDS011;43488;46.934;8.276;2023-07-31T07:08:47;775.13;;;309.17;;
57231;SDS011;43488;46.934;8.276;2023-07-31T07:11:15;762.03;;;280.70;;
57231;SDS011;43488;46.934;8.276;2023-07-31T07:13:42;780.55;;;300.65;;
57231;SDS011;43488;46.934;8.276;2023-07-31T07:16:10;783.63;;;304.70;;
57231;SDS011;43488;46.934;8.276;2023-07-31T07:18:37;793.38;;;308.55;;
57231;SDS011;43488;46.934;8.276;2023-07-31T07:21:05;781.50;;;299.30;;
57231;SDS011;43488;46.934;8.276;2023-07-31T07:23:32;775.88;;;280.25;;
57231;SDS011;43488;46.934;8.276;2023-07-31T07:26:00;791.03;;;304.48;;
57231;SDS011;43488;46.934;8.276;2023-07-31T07:28:27;784.55;;;286.92;;
57231;SDS011;43488;46.934;8.276;2023-07-31T07:30:55;787.78;;;292.73;;
57231;SDS011;43488;46.934;8.276;2023-07-31T07:33:22;785.00;;;284.02;;
57231;SDS011;43488;46.934;8.276;2023-07-31T07:35:50;799.33;;;301.02;;
57231;SDS011;43488;46.934;8.276;2023-07-31T07:38:17;797.28;;;294.20;;
57231;SDS011;43488;46.934;8.276;2023-07-31T07:40:45;788.05;;;282.38;;
57231;SDS011;43488;46.934;8.276;2023-07-31T07:43:17;790.08;;;279.45;;
57231;SDS011;43488;46.934;8.276;2023-07-31T07:45:44;755.78;;;259.70;;
57231;SDS011;43488;46.934;8.276;2023-07-31T07:48:12;783.38;;;274.33;;
57231;SDS011;43488;46.934;8.276;2023-07-31T07:50:39;735.15;;;240.02;;
57231;SDS011;43488;46.934;8.276;2023-07-31T07:53:07;770.95;;;270.45;;
57231;SDS011;43488;46.934;8.276;2023-07-31T07:55:35;764.25;;;247.10;;
57231;SDS011;43488;46.934;8.276;2023-07-31T07:58:02;781.60;;;272.10;;
57231;SDS011;43488;46.934;8.276;2023-07-31T08:00:29;782.95;;;275.58;;
57231;SDS011;43488;46.934;8.276;2023-07-31T08:02:57;783.72;;;281.15;;
57231;SDS011;43488;46.934;8.276;2023-07-31T08:05:24;794.22;;;293.40;;
57231;SDS011;43488;46.934;8.276;2023-07-31T08:07:52;781.17;;;273.92;;
57231;SDS011;43488;46.934;8.276;2023-07-31T08:10:19;793.60;;;284.98;;
57231;SDS011;43488;46.934;8.276;2023-07-31T08:12:49;797.03;;;292.05;;
57231;SDS011;43488;46.934;8.276;2023-07-31T08:15:16;795.67;;;289.00;;
57231;SDS011;43488;46.934;8.276;2023-07-31T08:17:43;781.88;;;268.60;;
57231;SDS011;43488;46.934;8.276;2023-07-31T08:20:12;769.92;;;265.40;;
57231;SDS011;43488;46.934;8.276;2023-07-31T08:22:40;791.90;;;288.25;;
57231;SDS011;43488;46.934;8.276;2023-07-31T08:25:08;794.60;;;288.58;;
57231;SDS011;43488;46.934;8.276;2023-07-31T08:27:35;795.00;;;302.45;;
57231;SDS011;43488;46.934;8.276;2023-07-31T08:30:03;788.80;;;303.50;;
57231;SDS011;43488;46.934;8.276;2023-07-31T08:32:30;782.75;;;312.15;;
57231;SDS011;43488;46.934;8.276;2023-07-31T08:34:58;767.08;;;294.88;;
57231;SDS011;43488;46.934;8.276;2023-07-31T08:37:25;783.70;;;285.40;;
57231;SDS011;43488;46.934;8.276;2023-07-31T08:39:53;795.40;;;294.35;;
57231;SDS011;43488;46.934;8.276;2023-07-31T08:42:23;803.67;;;302.93;;
57231;SDS011;43488;46.934;8.276;2023-07-31T08:44:53;787.10;;;322.15;;
57231;SDS011;43488;46.934;8.276;2023-07-31T08:47:22;773.15;;;296.08;;
57231;SDS011;43488;46.934;8.276;2023-07-31T08:49:50;780.22;;;284.95;;
57231;SDS011;43488;46.934;8.276;2023-07-31T08:52:19;775.35;;;302.45;;
57231;SDS011;43488;46.934;8.276;2023-07-31T08:54:47;788.53;;;299.70;;
57231;SDS011;43488;46.934;8.276;2023-07-31T08:57:15;774.60;;;295.50;;
57231;SDS011;43488;46.934;8.276;2023-07-31T08:59:45;767.72;;;291.92;;
57231;SDS011;43488;46.934;8.276;2023-07-31T09:02:13;773.75;;;295.52;;
57231;SDS011;43488;46.934;8.276;2023-07-31T09:04:47;774.30;;;325.52;;
57231;SDS011;43488;46.934;8.276;2023-07-31T09:07:14;759.83;;;310.80;;
57231;SDS011;43488;46.934;8.276;2023-07-31T09:09:43;767.55;;;303.50;;
57231;SDS011;43488;46.934;8.276;2023-07-31T09:12:13;792.55;;;315.70;;
57231;SDS011;43488;46.934;8.276;2023-07-31T09:14:41;793.92;;;312.23;;
57231;SDS011;43488;46.934;8.276;2023-07-31T09:17:11;783.50;;;289.17;;
57231;SDS011;43488;46.934;8.276;2023-07-31T09:19:39;773.97;;;291.40;;
57231;SDS011;43488;46.934;8.276;2023-07-31T09:22:07;769.70;;;309.48;;
57231;SDS011;43488;46.934;8.276;2023-07-31T09:24:34;674.95;;;281.05;;
57231;SDS011;43488;46.934;8.276;2023-07-31T09:27:02;670.80;;;290.58;;
57231;SDS011;43488;46.934;8.276;2023-07-31T09:29:30;677.80;;;288.23;;
57231;SDS011;43488;46.934;8.276;2023-07-31T09:31:57;694.30;;;301.70;;
57231;SDS011;43488;46.934;8.276;2023-07-31T09:34:29;711.85;;;305.58;;
57231;SDS011;43488;46.934;8.276;2023-07-31T09:37:07;713.35;;;291.95;;
57231;SDS011;43488;46.934;8.276;2023-07-31T09:39:45;735.22;;;311.42;;
57231;SDS011;43488;46.934;8.276;2023-07-31T09:42:14;709.83;;;297.23;;
57231;SDS011;43488;46.934;8.276;2023-07-31T09:44:54;726.95;;;299.65;;
57231;SDS011;43488;46.934;8.276;2023-07-31T09:47:37;739.28;;;306.40;;
57231;SDS011;43488;46.934;8.276;2023-07-31T09:50:07;747.50;;;320.02;;
57231;SDS011;43488;46.934;8.276;2023-07-31T09:52:36;730.15;;;303.58;;
57231;SDS011;43488;46.934;8.276;2023-07-31T09:55:05;736.58;;;308.73;;
57231;SDS011;43488;46.934;8.276;2023-07-31T09:57:33;717.53;;;292.27;;
57231;SDS011;43488;46.934;8.276;2023-07-31T10:00:04;731.00;;;331.48;;
57231;SDS011;43488;46.934;8.276;2023-07-31T10:02:33;685.47;;;292.77;;
57231;SDS011;43488;46.934;8.276;2023-07-31T10:05:04;686.25;;;276.52;;
57231;SDS011;43488;46.934;8.276;2023-07-31T10:07:37;696.90;;;302.42;;
57231;SDS011;43488;46.934;8.276;2023-07-31T10:10:07;711.05;;;295.75;;
57231;SDS011;43488;46.934;8.276;2023-07-31T10:12:36;685.88;;;288.05;;
57231;SDS011;43488;46.934;8.276;2023-07-31T10:15:04;716.65;;;309.55;;
57231;SDS011;43488;46.934;8.276;2023-07-31T10:17:33;722.17;;;310.55;;
57231;SDS011;43488;46.934;8.276;2023-07-31T10:20:05;727.38;;;308.20;;
57231;SDS011;43488;46.934;8.276;2023-07-31T10:22:35;722.17;;;295.77;;
57231;SDS011;43488;46.934;8.276;2023-07-31T10:25:03;713.08;;;297.40;;
57231;SDS011;43488;46.934;8.276;2023-07-31T10:27:39;715.05;;;301.50;;
57231;SDS011;43488;46.934;8.276;2023-07-31T10:30:09;719.30;;;302.67;;
57231;SDS011;43488;46.934;8.276;2023-07-31T10:32:44;718.20;;;294.40;;
57231;SDS011;43488;46.934;8.276;2023-07-31T10:35:14;723.70;;;313.73;;
57231;SDS011;43488;46.934;8.276;2023-07-31T10:37:43;714.35;;;293.05;;
57231;SDS011;43488;46.934;8.276;2023-07-31T10:42:51;735.22;;;309.45;;
57231;SDS011;43488;46.934;8.276;2023-07-31T10:45:31;727.70;;;302.35;;
57231;SDS011;43488;46.934;8.276;2023-07-31T10:48:06;730.08;;;295.77;;
57231;SDS011;43488;46.934;8.276;2023-07-31T10:50:54;691.83;;;295.75;;
57231;SDS011;43488;46.934;8.276;2023-07-31T10:55:57;713.25;;;300.00;;
57231;SDS011;43488;46.934;8.276;2023-07-31T10:58:29;720.67;;;299.30;;
57231;SDS011;43488;46.934;8.276;2023-07-31T11:01:02;710.67;;;282.90;;
57231;SDS011;43488;46.934;8.276;2023-07-31T11:03:42;728.90;;;306.77;;
57231;SDS011;43488;46.934;8.276;2023-07-31T11:06:13;719.40;;;293.70;;
57231;SDS011;43488;46.934;8.276;2023-07-31T11:08:43;731.35;;;307.92;;
57231;SDS011;43488;46.934;8.276;2023-07-31T11:11:12;726.90;;;306.75;;
57231;SDS011;43488;46.934;8.276;2023-07-31T11:13:48;684.28;;;284.90;;
57231;SDS011;43488;46.934;8.276;2023-07-31T11:16:28;696.97;;;301.88;;
57231;SDS011;43488;46.934;8.276;2023-07-31T11:18:55;714.33;;;296.20;;
57231;SDS011;43488;46.934;8.276;2023-07-31T11:21:23;739.85;;;314.38;;
57231;SDS011;43488;46.934;8.276;2023-07-31T11:23:52;752.55;;;316.75;;
57231;SDS011;43488;46.934;8.276;2023-07-31T11:26:23;751.88;;;317.00;;
57231;SDS011;43488;46.934;8.276;2023-07-31T11:28:51;741.15;;;311.17;;
57231;SDS011;43488;46.934;8.276;2023-07-31T11:31:18;712.00;;;318.58;;
57231;SDS011;43488;46.934;8.276;2023-07-31T11:33:46;710.50;;;304.63;;
57231;SDS011;43488;46.934;8.276;2023-07-31T11:36:17;717.95;;;302.50;;
57231;SDS011;43488;46.934;8.276;2023-07-31T11:38:47;693.38;;;309.90;;
57231;SDS011;43488;46.934;8.276;2023-07-31T11:41:15;712.70;;;302.38;;
57231;SDS011;43488;46.934;8.276;2023-07-31T11:43:43;732.92;;;308.40;;
57231;SDS011;43488;46.934;8.276;2023-07-31T11:46:11;706.63;;;285.92;;
57231;SDS011;43488;46.934;8.276;2023-07-31T11:48:41;659.03;;;285.65;;
57231;SDS011;43488;46.934;8.276;2023-07-31T11:51:09;690.22;;;301.50;;
57231;SDS011;43488;46.934;8.276;2023-07-31T11:56:19;692.90;;;305.70;;
57231;SDS011;43488;46.934;8.276;2023-07-31T11:58:53;694.25;;;305.20;;
57231;SDS011;43488;46.934;8.276;2023-07-31T12:01:26;686.83;;;304.83;;
57231;SDS011;43488;46.934;8.276;2023-07-31T12:03:54;703.63;;;307.77;;
57231;SDS011;43488;46.934;8.276;2023-07-31T12:06:36;684.25;;;289.35;;
57231;SDS011;43488;46.934;8.276;2023-07-31T12:09:04;712.10;;;310.27;;
57231;SDS011;43488;46.934;8.276;2023-07-31T12:11:45;718.38;;;312.58;;
57231;SDS011;43488;46.934;8.276;2023-07-31T12:14:20;717.28;;;311.05;;
57231;SDS011;43488;46.934;8.276;2023-07-31T12:17:00;729.28;;;312.38;;
57231;SDS011;43488;46.934;8.276;2023-07-31T12:19:31;731.35;;;315.38;;
57231;SDS011;43488;46.934;8.276;2023-07-31T12:21:59;731.15;;;323.17;;
57231;SDS011;43488;46.934;8.276;2023-07-31T12:24:27;738.15;;;315.73;;
57231;SDS011;43488;46.934;8.276;2023-07-31T12:26:55;664.17;;;284.50;;
57231;SDS011;43488;46.934;8.276;2023-07-31T12:29:22;689.60;;;306.05;;
57231;SDS011;43488;46.934;8.276;2023-07-31T12:31:49;731.65;;;313.67;;
57231;SDS011;43488;46.934;8.276;2023-07-31T12:34:17;727.22;;;307.38;;
57231;SDS011;43488;46.934;8.276;2023-07-31T12:36:47;706.58;;;317.70;;
57231;SDS011;43488;46.934;8.276;2023-07-31T12:39:17;751.63;;;314.60;;
57231;SDS011;43488;46.934;8.276;2023-07-31T12:41:45;763.30;;;334.63;;
57231;SDS011;43488;46.934;8.276;2023-07-31T12:44:12;764.58;;;326.60;;
57231;SDS011;43488;46.934;8.276;2023-07-31T12:46:40;736.55;;;322.30;;
57231;SDS011;43488;46.934;8.276;2023-07-31T12:49:07;749.20;;;311.92;;
57231;SDS011;43488;46.934;8.276;2023-07-31T12:51:35;756.03;;;302.95;;
57231;SDS011;43488;46.934;8.276;2023-07-31T12:54:03;772.92;;;316.85;;
57231;SDS011;43488;46.934;8.276;2023-07-31T12:56:31;766.38;;;312.55;;
57231;SDS011;43488;46.934;8.276;2023-07-31T12:58:58;777.05;;;328.10;;
57231;SDS011;43488;46.934;8.276;2023-07-31T13:01:26;738.85;;;306.52;;
57231;SDS011;43488;46.934;8.276;2023-07-31T13:03:53;713.83;;;311.45;;
57231;SDS011;43488;46.934;8.276;2023-07-31T13:06:20;718.25;;;318.15;;
57231;SDS011;43488;46.934;8.276;2023-07-31T13:08:48;722.20;;;326.30;;
57231;SDS011;43488;46.934;8.276;2023-07-31T13:11:15;724.22;;;311.00;;
57231;SDS011;43488;46.934;8.276;2023-07-31T13:13:42;720.55;;;300.40;;
57231;SDS011;43488;46.934;8.276;2023-07-31T13:16:10;721.38;;;318.65;;
57231;SDS011;43488;46.934;8.276;2023-07-31T13:18:38;786.10;;;328.63;;
57231;SDS011;43488;46.934;8.276;2023-07-31T13:21:05;782.00;;;332.83;;
57231;SDS011;43488;46.934;8.276;2023-07-31T13:23:33;774.80;;;313.05;;
57231;SDS011;43488;46.934;8.276;2023-07-31T13:26:00;787.20;;;315.48;;
57231;SDS011;43488;46.934;8.276;2023-07-31T13:28:27;796.67;;;339.70;;
57231;SDS011;43488;46.934;8.276;2023-07-31T13:30:55;777.88;;;320.98;;
57231;SDS011;43488;46.934;8.276;2023-07-31T13:33:23;752.08;;;315.30;;
57231;SDS011;43488;46.934;8.276;2023-07-31T13:35:50;727.42;;;340.67;;
57231;SDS011;43488;46.934;8.276;2023-07-31T13:38:17;728.85;;;317.17;;
57231;SDS011;43488;46.934;8.276;2023-07-31T13:40:46;750.88;;;332.25;;
57231;SDS011;43488;46.934;8.276;2023-07-31T13:43:15;740.45;;;317.67;;
57231;SDS011;43488;46.934;8.276;2023-07-31T13:45:42;729.70;;;324.35;;
57231;SDS011;43488;46.934;8.276;2023-07-31T13:48:09;740.75;;;313.38;;
57231;SDS011;43488;46.934;8.276;2023-07-31T13:50:36;735.55;;;311.95;;
57231;SDS011;43488;46.934;8.276;2023-07-31T13:53:04;734.95;;;316.38;;
57231;SDS011;43488;46.934;8.276;2023-07-31T13:55:31;742.00;;;309.77;;
57231;SDS011;43488;46.934;8.276;2023-07-31T13:58:00;746.03;;;308.98;;
57231;SDS011;43488;46.934;8.276;2023-07-31T14:00:27;757.72;;;325.25;;
57231;SDS011;43488;46.934;8.276;2023-07-31T14:02:57;761.90;;;323.70;;
57231;SDS011;43488;46.934;8.276;2023-07-31T14:05:24;753.78;;;311.48;;
57231;SDS011;43488;46.934;8.276;2023-07-31T14:07:52;753.83;;;321.73;;
57231;SDS011;43488;46.934;8.276;2023-07-31T14:10:19;737.00;;;318.70;;
57231;SDS011;43488;46.934;8.276;2023-07-31T14:12:49;736.67;;;308.17;;
57231;SDS011;43488;46.934;8.276;2023-07-31T14:15:17;740.20;;;316.98;;
57231;SDS011;43488;46.934;8.276;2023-07-31T14:17:44;744.25;;;318.00;;